createdAt,value
2022-10-11T00:01:32.135Z,16.36
2022-10-11T00:06:33.646Z,16.28
2022-10-11T00:11:34.989Z,16.17
2022-10-11T00:16:38.483Z,16.09
2022-10-11T00:21:40.027Z,15.99
2022-10-11T00:26:46.603Z,15.90
2022-10-11T00:31:48.481Z,15.87
2022-10-11T00:36:49.853Z,15.81
2022-10-11T00:41:51.367Z,15.78
2022-10-11T00:47:06.422Z,15.70
2022-10-11T00:52:31.414Z,15.53
2022-10-11T00:57:36.868Z,15.39
2022-10-11T01:02:39.994Z,15.36
2022-10-11T01:07:42.760Z,15.32
2022-10-11T01:13:22.931Z,15.26
2022-10-11T01:18:53.970Z,15.11
2022-10-11T01:24:32.700Z,14.90
2022-10-11T01:29:34.007Z,14.84
2022-10-11T01:34:55.944Z,14.79
2022-10-11T01:40:19.305Z,14.70
2022-10-11T01:45:21.706Z,14.52
2022-10-11T01:50:44.643Z,14.44
2022-10-11T01:56:10.442Z,14.35
2022-10-11T02:01:35.658Z,14.17
2022-10-11T02:06:51.003Z,13.98
2022-10-11T02:11:58.144Z,13.86
2022-10-11T02:17:07.724Z,13.80
2022-10-11T02:22:15.136Z,13.77
2022-10-11T02:27:18.518Z,13.66
2022-10-11T02:32:21.869Z,13.64
2022-10-11T02:37:29.338Z,13.65
2022-10-11T02:42:39.174Z,13.55
2022-10-11T02:47:42.375Z,13.47
2022-10-11T02:52:43.810Z,13.43
2022-10-11T02:57:46.493Z,13.37
2022-10-11T03:02:47.947Z,13.20
2022-10-11T03:07:49.311Z,13.13
2022-10-11T03:12:50.680Z,13.13
2022-10-11T03:17:52.054Z,12.99
2022-10-11T03:22:53.545Z,13.00
2022-10-11T03:27:54.907Z,12.87
2022-10-11T03:32:56.601Z,12.66
2022-10-11T03:37:57.970Z,12.49
2022-10-11T03:42:59.317Z,12.41
2022-10-11T03:48:00.683Z,12.31
2022-10-11T03:53:02.573Z,12.22
2022-10-11T03:58:03.944Z,12.19
2022-10-11T04:03:05.389Z,12.12
2022-10-11T04:08:11.217Z,12.07
2022-10-11T04:13:13.610Z,12.03
2022-10-11T04:18:15.118Z,12.02
2022-10-11T04:23:16.496Z,12.05
2022-10-11T04:28:18.038Z,11.97
2022-10-11T04:33:19.436Z,11.81
2022-10-11T04:38:20.917Z,11.76
2022-10-11T04:43:22.343Z,11.73
2022-10-11T04:48:23.732Z,11.70
2022-10-11T04:53:25.103Z,11.67
2022-10-11T04:58:28.207Z,11.70
2022-10-11T05:03:30.130Z,11.58
2022-10-11T05:08:31.554Z,11.38
2022-10-11T05:13:34.880Z,11.38
2022-10-11T05:18:36.443Z,11.36
2022-10-11T05:23:37.867Z,11.34
2022-10-11T05:28:39.402Z,11.11
2022-10-11T05:33:40.914Z,10.93
2022-10-11T05:38:42.486Z,10.84
2022-10-11T05:43:47.018Z,10.87
2022-10-11T05:48:48.417Z,10.85
2022-10-11T05:53:49.860Z,10.85
2022-10-11T05:58:52.077Z,10.87
2022-10-11T06:03:53.915Z,10.91
2022-10-11T06:08:55.328Z,10.81
2022-10-11T06:14:00.983Z,10.73
2022-10-11T06:19:02.354Z,10.82
2022-10-11T06:24:04.105Z,10.85
2022-10-11T06:29:05.960Z,10.94
2022-10-11T06:34:07.396Z,10.95
2022-10-11T06:39:08.844Z,11.09
2022-10-11T06:44:14.427Z,11.26
2022-10-11T06:49:20.719Z,11.40
2022-10-11T06:54:24.552Z,11.47
2022-10-11T06:59:25.988Z,11.52
2022-10-11T07:04:27.794Z,11.60
2022-10-11T07:09:29.243Z,11.66
2022-10-11T07:14:30.634Z,11.66
2022-10-11T07:19:32.176Z,11.72
2022-10-11T07:24:33.668Z,11.88
2022-10-11T07:29:35.084Z,11.99
2022-10-11T07:34:36.505Z,12.15
2022-10-11T07:39:37.970Z,12.33
2022-10-11T07:44:39.378Z,12.45
2022-10-11T07:49:40.860Z,12.64
2022-10-11T07:54:42.252Z,12.79
2022-10-11T07:59:47.866Z,12.94
2022-10-11T08:04:51.488Z,13.06
2022-10-11T08:09:53.029Z,13.15
2022-10-11T08:14:55.136Z,13.33
2022-10-11T08:19:58.054Z,13.41
2022-10-11T08:24:59.421Z,13.52
2022-10-11T08:30:00.883Z,13.66
2022-10-11T08:35:02.805Z,13.77
2022-10-11T08:40:05.947Z,13.81
2022-10-11T08:45:12.036Z,13.91
2022-10-11T08:50:19.922Z,13.91
2022-10-11T08:55:39.666Z,14.07
2022-10-11T09:00:42.106Z,14.21
2022-10-11T09:05:53.499Z,14.32
2022-10-11T09:11:16.539Z,14.38
2022-10-11T09:16:20.991Z,14.41
2022-10-11T09:21:41.002Z,14.43
2022-10-11T09:26:54.273Z,14.49
2022-10-11T09:31:57.042Z,14.57
2022-10-11T09:37:26.674Z,14.69
2022-10-11T09:42:28.028Z,14.84
2022-10-11T09:47:32.896Z,14.82
2022-10-11T09:52:34.296Z,14.99
2022-10-11T09:57:39.176Z,15.02
2022-10-11T10:02:47.449Z,15.11
2022-10-11T10:08:26.784Z,15.33
2022-10-11T10:13:46.446Z,15.42
2022-10-11T10:18:53.029Z,15.55
2022-10-11T10:23:56.584Z,15.72
2022-10-11T10:29:08.911Z,15.69
2022-10-11T10:34:15.914Z,15.80
2022-10-11T10:39:29.923Z,15.79
2022-10-11T10:44:31.564Z,15.75
2022-10-11T10:49:52.989Z,15.89
2022-10-11T10:55:14.036Z,15.92
2022-10-11T11:00:19.471Z,15.99
2022-10-11T11:05:34.109Z,16.20
2022-10-11T11:11:10.599Z,16.44
2022-10-11T11:16:30.868Z,16.49
2022-10-11T11:21:48.054Z,16.60
2022-10-11T11:27:06.186Z,16.72
2022-10-11T11:32:13.417Z,16.84
2022-10-11T11:37:33.608Z,17.00
2022-10-11T11:42:40.850Z,17.22
2022-10-11T11:47:47.227Z,17.28
2022-10-11T11:52:53.965Z,17.43
2022-10-11T11:58:03.270Z,17.57
2022-10-11T12:03:16.998Z,17.60
2022-10-11T12:08:28.080Z,17.90
2022-10-11T12:13:37.711Z,18.12
2022-10-11T12:18:51.751Z,18.41
2022-10-11T12:23:55.869Z,18.95
2022-10-11T12:29:03.772Z,19.45
2022-10-11T12:34:19.709Z,19.79
2022-10-11T12:39:21.021Z,19.74
2022-10-11T12:44:26.188Z,19.76
2022-10-11T12:49:31.119Z,19.66
2022-10-11T12:54:54.468Z,19.98
2022-10-11T13:00:17.764Z,20.25
2022-10-11T13:05:48.674Z,20.22
2022-10-11T13:10:53.389Z,20.32
2022-10-11T13:15:56.595Z,20.54
2022-10-11T13:20:58.089Z,20.79
2022-10-11T13:26:01.036Z,21.02
2022-10-11T13:31:03.948Z,21.12
2022-10-11T13:36:13.107Z,21.32
2022-10-11T13:41:15.323Z,21.28
2022-10-11T13:46:23.318Z,21.33
2022-10-11T13:51:39.152Z,21.34
2022-10-11T13:56:51.272Z,21.25
2022-10-11T14:01:59.461Z,20.92
2022-10-11T14:07:02.623Z,20.90
2022-10-11T14:12:25.808Z,20.58
2022-10-11T14:17:57.360Z,20.67
2022-10-11T14:22:58.832Z,20.55
2022-10-11T14:28:00.331Z,20.39
2022-10-11T14:33:02.763Z,20.32
2022-10-11T14:38:04.171Z,20.44
2022-10-11T14:43:05.631Z,20.33
2022-10-11T14:48:07.150Z,20.57
2022-10-11T14:53:10.227Z,20.54
2022-10-11T14:58:14.020Z,19.92
2022-10-11T15:03:15.501Z,19.83
2022-10-11T15:08:17.453Z,19.89
2022-10-11T15:13:19.505Z,19.80
2022-10-11T15:18:21.152Z,19.66
2022-10-11T15:23:22.566Z,19.41
2022-10-11T15:28:30.442Z,19.33
2022-10-11T15:33:32.209Z,19.14
2022-10-11T15:38:34.259Z,19.09
2022-10-11T15:43:35.712Z,19.04
2022-10-11T15:48:37.878Z,18.90
2022-10-11T15:53:39.341Z,18.85
2022-10-11T15:58:41.510Z,18.71
2022-10-11T16:03:43.339Z,18.34
2022-10-11T16:08:44.924Z,18.11
2022-10-11T16:13:46.587Z,18.06
2022-10-11T16:18:50.394Z,17.90
2022-10-11T16:23:51.776Z,17.70
2022-10-11T16:28:53.203Z,17.57
2022-10-11T16:33:54.728Z,17.36
2022-10-11T16:38:56.260Z,17.14
2022-10-11T16:43:57.661Z,16.98
2022-10-11T16:48:59.267Z,16.74
2022-10-11T16:54:01.024Z,16.50
2022-10-11T16:59:02.997Z,16.26
2022-10-11T17:04:04.906Z,16.08
2022-10-11T17:09:06.821Z,15.92
2022-10-11T17:14:08.311Z,15.67
2022-10-11T17:19:14.404Z,15.43
2022-10-11T17:24:15.743Z,15.26
2022-10-11T17:29:17.215Z,15.16
2022-10-11T17:34:18.634Z,15.01
2022-10-11T17:39:22.316Z,14.87
2022-10-11T17:44:23.724Z,14.70
2022-10-11T17:49:25.641Z,14.49
2022-10-11T17:54:27.254Z,14.33
2022-10-11T17:59:30.434Z,14.16
2022-10-11T18:04:31.820Z,13.97
2022-10-11T18:09:34.782Z,13.74
2022-10-11T18:14:36.463Z,13.51
2022-10-11T18:19:37.957Z,13.36
2022-10-11T18:24:39.359Z,13.25
2022-10-11T18:29:40.918Z,13.16
2022-10-11T18:34:42.435Z,13.08
2022-10-11T18:39:43.996Z,13.06
2022-10-11T18:44:45.488Z,12.98
2022-10-11T18:49:46.943Z,12.94
2022-10-11T18:54:48.347Z,12.98
2022-10-11T18:59:49.818Z,12.87
2022-10-11T19:04:52.652Z,12.81
2022-10-11T19:09:54.059Z,12.73
2022-10-11T19:14:55.489Z,12.68
2022-10-11T19:19:59.371Z,12.67
2022-10-11T19:25:00.728Z,12.65
2022-10-11T19:30:02.076Z,12.63
2022-10-11T19:35:03.843Z,12.57
2022-10-11T19:40:05.870Z,12.47
2022-10-11T19:45:07.875Z,12.39
2022-10-11T19:50:10.348Z,12.28
2022-10-11T19:55:11.771Z,12.19
2022-10-11T20:00:13.660Z,12.10
2022-10-11T20:05:15.183Z,12.03
2022-10-11T20:10:16.724Z,11.96
2022-10-11T20:15:18.186Z,11.86
2022-10-11T20:20:19.706Z,11.75
2022-10-11T20:25:21.070Z,11.67
2022-10-11T20:30:22.410Z,11.57
2022-10-11T20:35:23.804Z,11.48
2022-10-11T20:40:25.240Z,11.41
2022-10-11T20:45:26.918Z,11.31
2022-10-11T20:50:28.240Z,11.22
2022-10-11T20:55:29.834Z,11.14
2022-10-11T21:00:31.510Z,11.06
2022-10-11T21:05:33.227Z,10.99
2022-10-11T21:10:34.588Z,10.88
2022-10-11T21:15:35.915Z,10.81
2022-10-11T21:20:38.413Z,10.71
2022-10-11T21:25:40.332Z,10.61
2022-10-11T21:30:41.705Z,10.55
2022-10-11T21:35:43.110Z,10.47
2022-10-11T21:40:44.456Z,10.39
2022-10-11T21:45:46.038Z,10.31
2022-10-11T21:50:54.625Z,10.25
2022-10-11T21:55:57.678Z,10.15
2022-10-11T22:00:59.081Z,10.11
2022-10-11T22:06:04.385Z,10.05
2022-10-11T22:11:06.548Z,9.98
2022-10-11T22:16:10.462Z,9.87
2022-10-11T22:21:15.091Z,9.76
2022-10-11T22:26:19.963Z,9.76
2022-10-11T22:31:22.960Z,9.77
2022-10-11T22:36:24.541Z,9.74
2022-10-11T22:41:26.164Z,9.73
2022-10-11T22:46:28.081Z,9.71
2022-10-11T22:51:29.410Z,9.62
2022-10-11T22:56:30.789Z,9.54
2022-10-11T23:01:32.556Z,9.54
2022-10-11T23:06:34.040Z,9.49
2022-10-11T23:11:35.472Z,9.31
2022-10-11T23:16:36.876Z,9.17
2022-10-11T23:21:38.276Z,9.16
2022-10-11T23:26:39.660Z,9.08
2022-10-11T23:31:41.008Z,8.94
2022-10-11T23:36:42.401Z,8.87
2022-10-11T23:41:44.088Z,8.91
2022-10-11T23:46:46.188Z,8.96
2022-10-11T23:51:47.696Z,8.94
2022-10-11T23:56:49.074Z,8.93
